Time;durP1;ratioP1;P1;durP2;ratioP2;P2;SDS_P1;SDS_P2;PMS_P1;PMS_P2;Temp;Humidity;BMP_temperature;BMP_pressure;BME280_temperature;BME280_humidity;BME280_pressure;Samples;Min_cycle;Max_cycle;Signal;HPM_P1;HPM_P2
2023/04/01 00:01:24;;;;;;;4.82;0.82;;;10.70;99.90;;;;;;5034595;28;19909;-72
2023/04/01 00:03:50;;;;;;;3.43;0.83;;;10.60;99.90;;;;;;5035017;28;20025;-71
2023/04/01 00:06:18;;;;;;;4.38;0.70;;;10.70;99.90;;;;;;5031027;28;20108;-72
2023/04/01 00:08:44;;;;;;;5.03;0.73;;;10.70;99.90;;;;;;5016049;28;20037;-72
2023/04/01 00:11:10;;;;;;;6.53;0.90;;;10.70;99.90;;;;;;5015113;28;20029;-73
2023/04/01 00:13:36;;;;;;;4.15;0.70;;;10.60;99.90;;;;;;5015801;28;20026;-73
2023/04/01 00:16:02;;;;;;;4.93;1.17;;;10.60;99.90;;;;;;5015606;28;20026;-72
2023/04/01 00:18:28;;;;;;;2.47;0.90;;;10.60;99.90;;;;;;5014568;28;20046;-72
2023/04/01 00:20:54;;;;;;;5.63;1.00;;;10.60;99.90;;;;;;5015986;28;20118;-73
2023/04/01 00:23:20;;;;;;;3.28;0.77;;;10.60;99.90;;;;;;5015579;28;20379;-72
2023/04/01 00:25:47;;;;;;;2.55;0.60;;;10.60;99.90;;;;;;5015711;28;20493;-72
2023/04/01 00:28:14;;;;;;;4.05;1.10;;;10.60;99.90;;;;;;5015509;28;20022;-72
2023/04/01 00:30:40;;;;;;;4.20;0.82;;;10.60;99.90;;;;;;5014212;28;20030;-73
2023/04/01 00:33:06;;;;;;;4.65;1.10;;;10.50;99.90;;;;;;5014307;28;20022;-71
2023/04/01 00:35:32;;;;;;;4.60;0.80;;;10.60;99.90;;;;;;5015551;28;20072;-73
2023/04/01 00:37:58;;;;;;;2.75;1.10;;;10.60;99.90;;;;;;5015633;28;20389;-72
2023/04/01 00:40:29;;;;;;;;;;;10.50;99.90;;;;;;5016008;28;20123;-72
2023/04/01 00:42:55;;;;;;;3.00;0.63;;;10.60;99.90;;;;;;5015442;28;19905;-72
2023/04/01 00:45:37;;;;;;;6.23;1.57;;;10.70;99.90;;;;;;5015119;28;20022;-72
2023/04/01 00:48:25;;;;;;;4.95;0.63;;;10.70;99.90;;;;;;5014959;28;20101;-72
2023/04/01 00:50:54;;;;;;;3.08;1.00;;;10.80;99.90;;;;;;5013800;28;20069;-72
2023/04/01 00:53:21;;;;;;;5.45;1.20;;;10.80;99.90;;;;;;5015294;28;20112;-72
2023/04/01 00:55:57;;;;;;;4.63;0.80;;;10.70;99.90;;;;;;5014118;28;20564;-72
2023/04/01 00:58:24;;;;;;;2.35;0.52;;;10.80;99.90;;;;;;5014011;28;20037;-72
2023/04/01 01:00:51;;;;;;;4.13;1.20;;;10.70;99.90;;;;;;5013522;28;20021;-72
2023/04/01 01:03:17;;;;;;;4.15;0.88;;;10.70;99.90;;;;;;5015100;28;20389;-73
2023/04/01 01:06:02;;;;;;;5.67;0.93;;;10.70;99.90;;;;;;5015156;28;20026;-73
2023/04/01 01:08:36;;;;;;;3.03;0.82;;;10.70;99.90;;;;;;5020539;28;20642;-72
2023/04/01 01:11:04;;;;;;;5.10;1.00;;;10.70;99.90;;;;;;5034789;28;20025;-72
2023/04/01 01:13:40;;;;;;;4.40;0.80;;;10.70;99.90;;;;;;5034568;28;20026;-72
2023/04/01 01:16:29;;;;;;;4.05;0.77;;;10.70;99.90;;;;;;5033126;28;20021;-73
2023/04/01 01:19:10;;;;;;;2.92;1.00;;;10.60;99.90;;;;;;5033376;28;20044;-72
2023/04/01 01:21:48;;;;;;;3.55;0.60;;;10.60;99.90;;;;;;5033197;28;20454;-72
2023/04/01 01:24:42;;;;;;;2.90;0.60;;;10.70;99.90;;;;;;5033062;28;20017;-72
2023/04/01 01:27:16;;;;;;;2.42;0.75;;;10.70;99.90;;;;;;5017065;28;20052;-72
2023/04/01 01:30:09;;;;;;;4.40;1.15;;;10.70;99.90;;;;;;5034129;28;20071;-72
2023/04/01 01:33:11;;;;;;;5.43;0.70;;;10.70;99.90;;;;;;5034813;28;20037;-73
2023/04/01 01:35:45;;;;;;;2.53;0.68;;;10.50;99.90;;;;;;5032569;28;20037;-72
2023/04/01 01:38:16;;;;;;;3.10;0.73;;;10.50;99.90;;;;;;5034948;28;20032;-72
2023/04/01 01:40:46;;;;;;;8.63;0.68;;;10.50;99.90;;;;;;5035953;28;20108;-71
2023/04/01 01:43:16;;;;;;;3.17;0.90;;;10.60;99.90;;;;;;5034853;28;20051;-72
2023/04/01 01:45:48;;;;;;;2.70;0.77;;;10.50;99.90;;;;;;5034085;28;20492;-72
2023/04/01 01:48:16;;;;;;;3.38;0.70;;;10.30;99.90;;;;;;5035442;28;20013;-73
2023/04/01 01:50:43;;;;;;;2.42;0.68;;;10.30;99.90;;;;;;5033394;28;20025;-72
2023/04/01 01:53:11;;;;;;;1.63;0.57;;;10.30;99.90;;;;;;5035067;28;20022;-72
2023/04/01 01:55:40;;;;;;;1.80;0.50;;;10.30;99.90;;;;;;5034511;28;20032;-73
2023/04/01 01:58:14;;;;;;;3.80;0.57;;;10.10;99.90;;;;;;5034149;28;20025;-72
2023/04/01 02:00:43;;;;;;;3.83;0.90;;;10.10;99.90;;;;;;5033269;28;20394;-72
2023/04/01 02:03:09;;;;;;;1.75;0.40;;;10.10;99.90;;;;;;5038371;28;20385;-73
2023/04/01 02:05:35;;;;;;;;;;;10.20;99.90;;;;;;5037735;28;20025;-72
2023/04/01 02:08:09;;;;;;;1.10;0.40;;;10.10;99.90;;;;;;5033756;28;20263;-72
2023/04/01 02:10:39;;;;;;;4.13;0.77;;;10.00;99.90;;;;;;5033924;28;20040;-71
2023/04/01 02:13:31;;;;;;;1.83;0.50;;;10.00;99.90;;;;;;5034084;28;20056;-72
2023/04/01 02:16:01;;;;;;;0.77;0.30;;;10.00;99.90;;;;;;5026709;28;20037;-72
2023/04/01 02:18:29;;;;;;;1.75;0.20;;;10.00;99.90;;;;;;5032799;28;20037;-71
2023/04/01 02:20:58;;;;;;;0.70;0.30;;;10.10;99.90;;;;;;5033419;28;20056;-72
2023/04/01 02:23:27;;;;;;;3.58;0.45;;;10.10;99.90;;;;;;5034339;28;20140;-72
2023/04/01 02:25:54;;;;;;;2.00;0.40;;;10.00;99.90;;;;;;5035824;28;20030;-73
2023/04/01 02:28:20;;;;;;;0.40;0.20;;;10.00;99.90;;;;;;5035015;28;20026;-72
2023/04/01 02:30:47;;;;;;;1.38;0.20;;;10.10;99.90;;;;;;5033754;28;20056;-72
2023/04/01 02:33:13;;;;;;;1.70;0.30;;;10.10;99.90;;;;;;5035479;28;20029;-72
2023/04/01 02:35:39;;;;;;;0.40;0.20;;;10.00;99.90;;;;;;5032716;28;20032;-72
2023/04/01 02:38:06;;;;;;;1.43;0.40;;;10.10;99.90;;;;;;5032335;28;20539;-72
2023/04/01 02:40:42;;;;;;;2.22;0.30;;;10.10;99.90;;;;;;5033362;28;20082;-72
2023/04/01 02:43:08;;;;;;;2.45;0.40;;;10.10;99.90;;;;;;5032150;28;20022;-71
2023/04/01 02:45:33;;;;;;;1.73;0.23;;;10.10;99.90;;;;;;5033101;28;20053;-72
2023/04/01 02:47:59;;;;;;;2.80;0.80;;;10.10;99.90;;;;;;5033103;28;20083;-72
2023/04/01 02:50:24;;;;;;;2.60;0.47;;;10.00;99.90;;;;;;5033294;28;20083;-72
2023/04/01 02:52:50;;;;;;;1.45;0.40;;;9.90;99.90;;;;;;5032821;28;20026;-73
2023/04/01 02:55:16;;;;;;;2.63;0.37;;;10.00;99.90;;;;;;5032236;28;20025;-71
2023/04/01 02:57:41;;;;;;;0.90;0.30;;;9.90;99.90;;;;;;5032079;28;20022;-72
2023/04/01 03:00:11;;;;;;;2.63;0.30;;;10.00;99.90;;;;;;5031736;28;20296;-72
2023/04/01 03:02:38;;;;;;;1.65;0.30;;;9.90;99.90;;;;;;5033293;28;20018;-73
2023/04/01 03:05:05;;;;;;;2.50;0.73;;;9.90;99.90;;;;;;5033271;28;20017;-71
2023/04/01 03:07:31;;;;;;;1.55;0.45;;;9.90;99.90;;;;;;5031882;28;20025;-72
2023/04/01 03:09:56;;;;;;;1.85;0.38;;;10.00;99.90;;;;;;5032051;28;20466;-72
2023/04/01 03:12:22;;;;;;;3.53;0.40;;;10.00;99.90;;;;;;5036533;28;20037;-72
2023/04/01 03:14:47;;;;;;;0.70;0.70;;;10.00;99.90;;;;;;5036765;28;20029;-72
2023/04/01 03:17:13;;;;;;;1.97;0.47;;;9.90;99.90;;;;;;5036716;28;20021;-72
2023/04/01 03:19:39;;;;;;;0.60;0.23;;;10.00;99.90;;;;;;5035244;28;20044;-71
2023/04/01 03:22:04;;;;;;;1.37;0.30;;;10.00;99.90;;;;;;5035260;28;20033;-72
2023/04/01 03:24:30;;;;;;;2.97;0.30;;;9.90;99.90;;;;;;5036587;28;20030;-71
2023/04/01 03:26:55;;;;;;;3.40;1.13;;;10.00;99.90;;;;;;5035485;28;20024;-72
2023/04/01 03:29:21;;;;;;;0.97;0.30;;;10.00;99.90;;;;;;5035456;28;20022;-72
2023/04/01 03:31:47;;;;;;;1.17;0.30;;;10.10;99.90;;;;;;5035185;28;20486;-72
2023/04/01 03:34:12;;;;;;;2.13;0.30;;;10.10;99.90;;;;;;5035854;28;20026;-71
2023/04/01 03:36:38;;;;;;;3.43;0.70;;;10.00;99.90;;;;;;5040425;28;20056;-72
2023/04/01 03:39:03;;;;;;;1.60;0.30;;;10.00;99.90;;;;;;5042037;28;20037;-73
2023/04/01 03:41:30;;;;;;;4.40;0.50;;;10.00;99.90;;;;;;5039282;28;20033;-72
2023/04/01 03:43:56;;;;;;;2.67;0.50;;;10.10;99.90;;;;;;5036635;28;20026;-72
2023/04/01 03:46:21;;;;;;;1.60;0.40;;;10.10;99.90;;;;;;5036486;28;20075;-74
2023/04/01 03:48:47;;;;;;;4.90;0.67;;;10.10;99.90;;;;;;5036956;28;20367;-72
2023/04/01 03:51:13;;;;;;;2.15;0.30;;;10.10;99.90;;;;;;5036540;28;20770;-71
2023/04/01 03:53:39;;;;;;;1.52;0.40;;;10.10;99.90;;;;;;5035110;28;20029;-72
2023/04/01 03:56:09;;;;;;;3.80;0.50;;;10.10;99.90;;;;;;5035110;28;20031;-72
2023/04/01 03:58:35;;;;;;;0.98;0.30;;;10.10;99.90;;;;;;5036116;28;20030;-72
2023/04/01 04:01:01;;;;;;;2.40;0.47;;;10.10;99.90;;;;;;5036455;28;20469;-72
2023/04/01 04:03:26;;;;;;;1.80;0.50;;;10.10;99.90;;;;;;5034830;28;20028;-72
2023/04/01 04:05:52;;;;;;;7.13;0.50;;;10.10;99.90;;;;;;5034762;28;20264;-72
2023/04/01 04:08:17;;;;;;;3.67;0.43;;;10.00;99.90;;;;;;5034511;28;20037;-72
2023/04/01 04:10:43;;;;;;;2.70;0.50;;;10.10;99.90;;;;;;5034777;28;20025;-71
2023/04/01 04:13:09;;;;;;;4.70;0.60;;;10.10;99.90;;;;;;5036253;28;20030;-71
2023/04/01 04:15:35;;;;;;;1.58;0.57;;;10.10;99.90;;;;;;5036103;28;20108;-72
2023/04/01 04:18:00;;;;;;;5.43;0.80;;;10.20;99.90;;;;;;5035195;28;20069;-72
2023/04/01 04:20:26;;;;;;;4.47;0.60;;;10.20;99.90;;;;;;5034915;28;20029;-73
2023/04/01 04:22:51;;;;;;;5.63;1.67;;;10.20;99.90;;;;;;5034487;28;20071;-72
2023/04/01 04:25:17;;;;;;;4.27;0.70;;;10.20;99.90;;;;;;5035559;28;20095;-72
2023/04/01 04:27:43;;;;;;;4.95;0.70;;;10.30;99.90;;;;;;5034183;28;20053;-73
2023/04/01 04:30:09;;;;;;;5.65;0.93;;;10.30;99.90;;;;;;5034209;28;20030;-73
2023/04/01 04:32:35;;;;;;;3.25;0.93;;;10.30;99.90;;;;;;5035436;28;20030;-72
2023/04/01 04:35:01;;;;;;;4.30;0.73;;;10.30;99.90;;;;;;5034246;28;20029;-72
2023/04/01 04:37:26;;;;;;;5.80;1.23;;;10.40;99.90;;;;;;5034238;28;20311;-72
2023/04/01 04:39:52;;;;;;;5.20;1.17;;;10.30;99.90;;;;;;5035353;28;20100;-72
2023/04/01 04:42:17;;;;;;;4.27;0.70;;;10.30;99.90;;;;;;5034228;28;20506;-72
2023/04/01 04:44:43;;;;;;;3.57;0.90;;;10.40;99.90;;;;;;5033995;28;20033;-72
2023/04/01 04:47:09;;;;;;;8.75;0.85;;;10.30;99.90;;;;;;5035396;28;20045;-72
2023/04/01 04:49:34;;;;;;;6.45;1.23;;;10.40;99.90;;;;;;5034085;28;20144;-72
2023/04/01 04:52:00;;;;;;;2.47;0.60;;;10.40;99.90;;;;;;5034704;28;20466;-72
2023/04/01 04:54:26;;;;;;;6.20;0.77;;;10.40;99.90;;;;;;5035384;28;20033;-72
2023/04/01 04:56:52;;;;;;;4.37;0.77;;;10.40;99.90;;;;;;5035027;28;20025;-71
2023/04/01 04:59:18;;;;;;;4.93;0.90;;;10.40;99.90;;;;;;5033426;28;20036;-71
2023/04/01 05:01:43;;;;;;;3.87;0.80;;;10.40;99.90;;;;;;5033849;28;20386;-69
2023/04/01 05:04:09;;;;;;;6.87;1.03;;;10.30;99.90;;;;;;5034949;28;20028;-69
2023/04/01 05:06:35;;;;;;;4.77;0.80;;;10.50;99.90;;;;;;5034876;28;20507;-69
2023/04/01 05:09:00;;;;;;;5.33;0.97;;;10.40;99.90;;;;;;5033045;28;20025;-69
2023/04/01 05:11:26;;;;;;;3.27;0.90;;;10.40;99.90;;;;;;5033265;28;20108;-69
2023/04/01 05:13:51;;;;;;;6.27;0.90;;;10.50;99.90;;;;;;5034899;28;20513;-69
2023/04/01 05:16:19;;;;;;;2.33;0.50;;;10.30;99.90;;;;;;5033477;28;20033;-69
2023/04/01 05:18:46;;;;;;;3.15;0.70;;;10.40;99.90;;;;;;5036745;28;20060;-69
2023/04/01 05:21:14;;;;;;;2.80;0.60;;;10.40;99.90;;;;;;5036583;28;20018;-70
2023/04/01 05:23:41;;;;;;;2.78;0.55;;;10.30;99.90;;;;;;5034714;28;20083;-69
2023/04/01 05:26:09;;;;;;;2.20;0.60;;;10.30;99.90;;;;;;5034798;28;20018;-69
2023/04/01 05:28:34;;;;;;;4.45;0.65;;;10.30;99.90;;;;;;5033109;28;20037;-69
2023/04/01 05:31:01;;;;;;;1.73;0.40;;;10.30;99.90;;;;;;5033923;28;20029;-69
2023/04/01 05:33:27;;;;;;;1.63;0.40;;;10.20;99.90;;;;;;5032658;28;20091;-70
2023/04/01 05:35:53;;;;;;;2.17;0.70;;;10.10;99.90;;;;;;5033404;28;20033;-70
2023/04/01 05:38:19;;;;;;;3.03;0.40;;;10.10;99.90;;;;;;5051979;28;20108;-70
2023/04/01 05:40:45;;;;;;;1.90;0.50;;;10.10;99.90;;;;;;5047072;28;20124;-70
2023/04/01 05:43:11;;;;;;;1.63;0.38;;;10.00;99.90;;;;;;5053749;28;20465;-69
2023/04/01 05:45:36;;;;;;;3.47;0.30;;;9.90;99.90;;;;;;5041038;28;20030;-69
2023/04/01 05:48:02;;;;;;;2.70;0.57;;;9.80;99.90;;;;;;5033655;28;20538;-69
2023/04/01 05:50:27;;;;;;;1.47;0.50;;;9.80;99.90;;;;;;5033415;28;20036;-69
2023/04/01 05:52:53;;;;;;;0.77;0.30;;;9.70;99.90;;;;;;5032363;28;20112;-68
2023/04/01 05:55:19;;;;;;;2.50;0.63;;;9.70;99.90;;;;;;5033636;28;20026;-68
2023/04/01 05:57:46;;;;;;;1.40;0.50;;;9.70;99.90;;;;;;5033514;28;20481;-69
2023/04/01 06:00:12;;;;;;;5.32;0.55;;;9.70;99.90;;;;;;5044554;28;20032;-71
2023/04/01 06:02:38;;;;;;;;;;;9.60;99.90;;;;;;5052166;28;20052;-70
2023/04/01 06:05:23;;;;;;;4.13;0.70;;;9.50;99.90;;;;;;5053426;28;19905;-69
2023/04/01 06:07:55;;;;;;;2.08;0.45;;;9.50;99.90;;;;;;5052211;28;20042;-69
2023/04/01 06:10:23;;;;;;;4.50;0.90;;;9.50;99.90;;;;;;5052389;28;20025;-70
2023/04/01 06:13:07;;;;;;;2.78;0.47;;;9.40;99.90;;;;;;5044849;28;20025;-70
2023/04/01 06:15:54;;;;;;;1.75;0.40;;;9.30;99.90;;;;;;5032166;28;20032;-70
2023/04/01 06:19:01;;;;;;;3.20;0.85;;;9.30;99.90;;;;;;5014211;28;20402;-73
2023/04/01 06:21:35;;;;;;;1.35;0.40;;;9.50;99.90;;;;;;5012449;28;20422;-69
2023/04/01 06:24:27;;;;;;;3.28;0.70;;;9.50;99.90;;;;;;5013930;28;20101;-71
2023/04/01 06:27:34;;;;;;;3.30;0.73;;;9.50;99.90;;;;;;5012583;28;20025;-68
2023/04/01 06:30:19;;;;;;;1.90;0.43;;;9.50;99.90;;;;;;4992354;28;20507;-68
2023/04/01 06:32:44;;;;;;;4.47;0.80;;;9.70;99.90;;;;;;5011770;28;20040;-67
2023/04/01 06:35:10;;;;;;;3.00;1.00;;;9.70;99.90;;;;;;5013671;28;20453;-67
2023/04/01 06:38:00;;;;;;;4.07;0.63;;;9.70;99.90;;;;;;5013972;28;20033;-69
2023/04/01 06:40:52;;;;;;;5.10;1.08;;;9.70;99.90;;;;;;5023847;28;20084;-67
2023/04/01 06:44:06;;;;;;;2.88;0.75;;;9.60;99.90;;;;;;5023066;28;20022;-68
2023/04/01 06:47:10;;;;;;;3.20;0.70;;;9.70;99.90;;;;;;4984608;28;20042;-67
2023/04/01 06:49:51;;;;;;;3.33;0.90;;;9.80;99.90;;;;;;5067169;23;20040;-70
2023/04/01 06:52:41;;;;;;;2.35;0.47;;;9.80;99.90;;;;;;5038734;28;20071;-71
2023/04/01 06:55:19;;;;;;;3.92;0.60;;;9.80;99.90;;;;;;5036886;28;20022;-71
2023/04/01 06:57:55;;;;;;;3.67;0.60;;;9.80;99.90;;;;;;5040015;28;20026;-74
2023/04/01 07:00:41;;;;;;;2.63;0.77;;;9.90;99.90;;;;;;5047839;28;20040;-70
2023/04/01 07:03:20;;;;;;;4.15;1.00;;;9.70;99.90;;;;;;5049267;28;20039;-71
2023/04/01 07:05:45;;;;;;;2.65;0.70;;;9.80;99.90;;;;;;5053271;28;20086;-72
2023/04/01 07:08:22;;;;;;;3.03;0.70;;;9.90;99.90;;;;;;5036560;28;20409;-71
2023/04/01 07:10:56;;;;;;;1.20;0.57;;;9.80;99.90;;;;;;5036823;28;20026;-71
2023/04/01 07:13:32;;;;;;;4.50;0.70;;;9.80;99.90;;;;;;5048347;28;20438;-71
2023/04/01 07:16:20;;;;;;;3.60;0.80;;;9.80;99.90;;;;;;5040619;28;20033;-71
2023/04/01 07:18:49;;;;;;;;;;;9.80;99.90;;;;;;5047451;28;20033;-72
2023/04/01 07:21:25;;;;;;;5.28;0.73;;;9.80;99.90;;;;;;5052143;28;19913;-73
2023/04/01 07:23:54;;;;;;;3.72;1.00;;;9.70;99.90;;;;;;5056156;28;20473;-76
2023/04/01 07:26:24;;;;;;;5.57;1.05;;;9.70;99.90;;;;;;5035030;28;20112;-71
2023/04/01 07:28:52;;;;;;;5.20;0.80;;;9.60;99.90;;;;;;5054645;28;20384;-71
2023/04/01 07:31:59;;;;;;;4.93;0.90;;;9.70;99.90;;;;;;5038311;28;20029;-71
2023/04/01 07:34:35;;;;;;;5.40;1.10;;;9.70;99.90;;;;;;5036836;28;20036;-71
2023/04/01 07:37:16;;;;;;;4.70;1.20;;;9.80;99.90;;;;;;5052248;28;20036;-74
2023/04/01 07:40:05;;;;;;;8.18;1.02;;;9.70;99.90;;;;;;5036639;28;20022;-76
2023/04/01 07:42:57;;;;;;;6.50;1.00;;;9.60;99.90;;;;;;5036446;28;20389;-75
2023/04/01 07:45:42;;;;;;;4.65;1.10;;;9.50;99.90;;;;;;5053142;28;20028;-72
2023/04/01 07:48:43;;;;;;;6.57;1.02;;;9.50;99.90;;;;;;5052245;28;20024;-72
2023/04/01 07:51:14;;;;;;;4.60;0.93;;;9.40;99.90;;;;;;5031601;28;20025;-73
2023/04/01 07:54:33;;;;;;;3.63;1.10;;;9.20;99.90;;;;;;5051514;28;20086;-73
2023/04/01 07:57:06;;;;;;;4.07;0.88;;;9.20;99.90;;;;;;5004723;28;20038;-71
2023/04/01 08:00:01;;;;;;;5.25;1.00;;;9.30;99.90;;;;;;5054929;28;20029;-70
2023/04/01 08:02:52;;;;;;;6.03;2.00;;;9.20;99.90;;;;;;5008249;28;20053;-75
2023/04/01 08:05:30;;;;;;;5.32;1.10;;;9.20;99.90;;;;;;5042502;28;20017;-76
2023/04/01 08:07:58;;;;;;;4.88;1.08;;;9.30;99.90;;;;;;5045391;28;20029;-77
2023/04/01 08:10:35;;;;;;;5.85;0.93;;;9.30;99.90;;;;;;5055260;28;20033;-73
2023/04/01 08:13:07;;;;;;;5.70;1.05;;;9.40;99.90;;;;;;5029267;28;20133;-72
2023/04/01 08:15:47;;;;;;;8.52;1.13;;;9.50;99.90;;;;;;5045152;28;20028;-72
2023/04/01 08:18:20;;;;;;;7.57;0.80;;;9.50;99.90;;;;;;5033896;28;20052;-72
2023/04/01 08:20:58;;;;;;;5.90;1.05;;;9.50;99.90;;;;;;5048484;28;20040;-71
2023/04/01 08:23:32;;;;;;;3.47;1.10;;;9.50;99.90;;;;;;5021296;28;20021;-71
2023/04/01 08:26:02;;;;;;;5.20;0.98;;;9.60;99.90;;;;;;5042247;28;20029;-73
2023/04/01 08:28:53;;;;;;;5.70;1.02;;;9.80;99.90;;;;;;5026181;28;20479;-72
2023/04/01 08:31:54;;;;;;;5.95;1.00;;;9.80;99.90;;;;;;5051489;28;20062;-70
2023/04/01 08:34:32;;;;;;;5.65;0.80;;;9.90;99.90;;;;;;5036114;28;20055;-68
2023/04/01 08:37:04;;;;;;;3.15;0.70;;;9.90;99.90;;;;;;5049255;28;20033;-73
2023/04/01 08:39:38;;;;;;;4.72;0.90;;;9.90;99.90;;;;;;5038966;28;20032;-72
2023/04/01 08:42:06;;;;;;;2.75;0.80;;;9.90;99.90;;;;;;5055799;28;20017;-69
2023/04/01 08:45:00;;;;;;;2.35;1.00;;;9.90;99.90;;;;;;5053277;28;20029;-69
2023/04/01 08:47:45;;;;;;;5.55;0.70;;;10.00;99.90;;;;;;5038422;28;20036;-71
2023/04/01 08:50:26;;;;;;;5.93;0.90;;;10.00;99.90;;;;;;5044831;28;20086;-71
2023/04/01 08:53:15;;;;;;;4.57;0.70;;;10.00;99.90;;;;;;5037708;28;20021;-71
2023/04/01 08:56:17;;;;;;;5.68;1.23;;;10.00;99.90;;;;;;5042955;28;20116;-72
2023/04/01 08:58:53;;;;;;;5.38;0.80;;;9.90;99.90;;;;;;5053896;28;20029;-72
2023/04/01 09:01:30;;;;;;;4.43;0.80;;;10.00;99.90;;;;;;5055781;28;20025;-70
2023/04/01 09:04:15;;;;;;;3.40;0.90;;;10.00;99.90;;;;;;5037319;28;20426;-72
2023/04/01 09:06:49;;;;;;;6.53;1.30;;;10.00;99.90;;;;;;5042008;28;20326;-70
2023/04/01 09:09:44;;;;;;;6.22;1.38;;;10.10;99.90;;;;;;5053892;28;20025;-70
2023/04/01 09:12:30;;;;;;;5.57;0.90;;;10.10;99.90;;;;;;5044963;28;20021;-71
2023/04/01 09:15:02;;;;;;;2.33;0.60;;;10.20;99.90;;;;;;5033999;28;20078;-70
2023/04/01 09:17:41;;;;;;;2.97;0.60;;;10.00;99.90;;;;;;5054026;28;20021;-70
2023/04/01 09:20:19;;;;;;;2.63;0.50;;;10.00;99.90;;;;;;5050111;28;20381;-70
2023/04/01 09:23:22;;;;;;;3.67;0.88;;;9.90;99.90;;;;;;5050580;28;20094;-70
2023/04/01 09:26:13;;;;;;;4.70;0.90;;;9.90;99.90;;;;;;5024124;28;20022;-70
2023/04/01 09:28:48;;;;;;;1.48;0.65;;;9.90;99.90;;;;;;5052547;28;20025;-71
2023/04/01 09:31:47;;;;;;;5.47;0.80;;;9.90;99.90;;;;;;5048316;28;20531;-73
2023/04/01 09:34:41;;;;;;;4.15;1.13;;;9.90;99.90;;;;;;5053120;28;20051;-71
2023/04/01 09:37:06;;;;;;;1.45;0.52;;;9.90;99.90;;;;;;5053101;28;20045;-71
2023/04/01 09:39:38;;;;;;;3.67;0.90;;;10.00;99.90;;;;;;5054063;28;20087;-73
2023/04/01 09:42:10;;;;;;;3.10;0.75;;;9.90;99.90;;;;;;5053705;28;20416;-71
2023/04/01 09:45:04;;;;;;;2.17;0.73;;;9.90;99.90;;;;;;5025148;28;20032;-71
2023/04/01 09:47:45;;;;;;;1.23;0.45;;;9.80;99.90;;;;;;5033738;28;20025;-71
2023/04/01 09:50:26;;;;;;;4.00;0.77;;;9.80;99.90;;;;;;5035350;28;20053;-72
2023/04/01 09:53:06;;;;;;;1.10;0.60;;;9.90;99.90;;;;;;5049922;28;20025;-71
2023/04/01 09:55:55;;;;;;;1.40;0.60;;;9.80;99.90;;;;;;5053356;28;20058;-71
2023/04/01 09:59:03;;;;;;;2.95;0.70;;;9.90;99.90;;;;;;5054274;28;20028;-72
2023/04/01 10:01:42;;;;;;;1.58;0.70;;;9.90;99.90;;;;;;5052885;28;20036;-71
2023/04/01 10:04:45;;;;;;;2.53;0.77;;;10.00;99.90;;;;;;5033479;28;20026;-71
2023/04/01 10:07:36;;;;;;;2.33;0.55;;;10.10;99.90;;;;;;5035303;28;20017;-72
2023/04/01 10:10:42;;;;;;;2.28;0.82;;;10.10;99.90;;;;;;4997683;28;20044;-72
2023/04/01 10:13:39;;;;;;;3.40;0.85;;;10.10;99.90;;;;;;5034060;28;20042;-71
2023/04/01 10:16:25;;;;;;;3.22;0.90;;;10.20;99.90;;;;;;5035676;28;20029;-71
2023/04/01 10:19:16;;;;;;;2.05;0.82;;;10.20;99.90;;;;;;5052811;28;20021;-71
2023/04/01 10:22:19;;;;;;;3.17;1.05;;;10.20;99.90;;;;;;5023343;28;20029;-71
2023/04/01 10:25:23;;;;;;;1.80;0.80;;;10.10;99.90;;;;;;5016647;28;20022;-73
2023/04/01 10:28:07;;;;;;;1.98;0.77;;;10.00;99.90;;;;;;5038928;28;20105;-74
2023/04/01 10:31:10;;;;;;;4.35;0.90;;;10.10;99.90;;;;;;5016196;28;20202;-75
2023/04/01 10:33:51;;;;;;;5.18;1.00;;;10.20;99.90;;;;;;5041529;28;20052;-75
2023/04/01 10:36:46;;;;;;;3.80;0.80;;;10.10;99.90;;;;;;5045923;28;20330;-74
2023/04/01 10:39:39;;;;;;;4.93;0.70;;;10.10;99.90;;;;;;5056443;28;20029;-73
2023/04/01 10:42:36;;;;;;;1.67;0.73;;;10.00;99.90;;;;;;5053366;28;20025;-72
2023/04/01 10:45:43;;;;;;;1.00;0.60;;;9.90;99.90;;;;;;5035213;28;20087;-71
2023/04/01 10:48:27;;;;;;;3.20;0.80;;;10.00;99.90;;;;;;5034724;28;20035;-72
2023/04/01 10:51:05;;;;;;;2.08;0.60;;;10.00;99.90;;;;;;5037595;28;20021;-73
2023/04/01 10:54:00;;;;;;;1.90;0.57;;;10.10;99.90;;;;;;5060826;28;20080;-72
2023/04/01 10:56:50;;;;;;;2.83;0.80;;;10.00;99.90;;;;;;5056687;28;20037;-73
2023/04/01 10:59:37;;;;;;;3.10;0.90;;;10.00;99.90;;;;;;5018746;28;20033;-72
2023/04/01 11:02:29;;;;;;;2.45;0.65;;;10.10;99.90;;;;;;5038198;28;20032;-72
2023/04/01 11:05:13;;;;;;;3.15;1.00;;;10.10;99.90;;;;;;5015003;28;20113;-72
2023/04/01 11:08:06;;;;;;;1.98;0.70;;;10.20;99.90;;;;;;5023097;28;20033;-72
2023/04/01 11:11:21;;;;;;;3.20;0.65;;;10.20;99.90;;;;;;5016045;28;20014;-73
2023/04/01 11:14:06;;;;;;;2.60;0.90;;;10.30;99.90;;;;;;5035027;28;20022;-73
2023/04/01 11:16:56;;;;;;;1.88;1.20;;;10.30;99.90;;;;;;5037751;28;20100;-73
2023/04/01 11:19:31;;;;;;;2.53;0.70;;;10.30;99.90;;;;;;5043998;28;20018;-74
2023/04/01 11:22:31;;;;;;;1.52;0.70;;;10.30;99.90;;;;;;5028935;28;20049;-73
2023/04/01 11:25:21;;;;;;;2.78;0.80;;;10.40;99.90;;;;;;5041836;28;20022;-74
2023/04/01 11:28:16;;;;;;;1.42;0.65;;;10.30;99.90;;;;;;5039942;28;20021;-73
2023/04/01 11:31:03;;;;;;;3.67;0.80;;;10.20;99.90;;;;;;5036141;28;20034;-72
2023/04/01 11:33:49;;;;;;;2.25;0.70;;;10.10;99.90;;;;;;5038614;28;20029;-72
2023/04/01 11:36:33;;;;;;;3.22;0.57;;;10.00;99.90;;;;;;5036853;28;20030;-73
2023/04/01 11:39:21;;;;;;;1.90;0.40;;;10.10;99.90;;;;;;5055400;28;20469;-70
2023/04/01 11:42:03;;;;;;;;;;;10.00;99.90;;;;;;5057860;28;20032;-71
2023/04/01 11:44:30;;;;;;;0.95;0.43;;;10.00;99.90;;;;;;5055315;28;20456;-70
2023/04/01 11:47:29;;;;;;;2.88;0.50;;;10.00;99.90;;;;;;5056285;28;20059;-71
2023/04/01 11:50:19;;;;;;;2.55;0.60;;;10.10;99.90;;;;;;5057734;28;20082;-71
2023/04/01 11:53:12;;;;;;;1.00;0.40;;;10.20;99.90;;;;;;5023638;28;20371;-71
2023/04/01 11:56:29;;;;;;;1.02;0.50;;;10.10;99.90;;;;;;5051508;28;20030;-70
2023/04/01 11:59:23;;;;;;;1.83;0.60;;;10.20;99.90;;;;;;4983861;28;20037;-70
2023/04/01 12:02:18;;;;;;;1.95;0.60;;;10.20;99.90;;;;;;5045237;28;20033;-70
2023/04/01 12:05:12;;;;;;;1.60;0.57;;;10.00;99.90;;;;;;5042285;28;20045;-72
2023/04/01 12:08:13;;;;;;;1.10;0.32;;;10.10;99.90;;;;;;5050571;28;20113;-72
2023/04/01 12:11:15;;;;;;;3.63;0.60;;;10.20;99.90;;;;;;4918361;29;20039;-72
2023/04/01 12:13:51;;;;;;;1.30;0.73;;;10.40;99.90;;;;;;4908928;29;20107;-74
2023/04/01 12:16:37;;;;;;;1.13;0.60;;;10.30;99.90;;;;;;4909999;29;20179;-71
2023/04/01 12:19:19;;;;;;;1.67;0.40;;;10.10;99.90;;;;;;4935613;29;20040;-73
2023/04/01 12:22:15;;;;;;;1.17;0.52;;;10.00;99.90;;;;;;4936013;29;20034;-72
2023/04/01 12:25:04;;;;;;;0.95;0.45;;;10.00;99.90;;;;;;4915820;29;20071;-73
2023/04/01 13:11:55;;;;;;;0.85;0.35;;;10.10;99.90;;;;;;5399157;23;20273;-72
2023/04/01 13:14:47;;;;;;;0.38;0.30;;;10.00;99.90;;;;;;5025534;28;20032;-73
2023/04/01 13:17:16;;;;;;;2.15;0.50;;;10.00;99.90;;;;;;5034557;28;20024;-72
2023/04/01 13:20:22;;;;;;;1.00;0.50;;;10.10;99.90;;;;;;5054061;28;20017;-72
2023/04/01 13:23:06;;;;;;;1.73;0.57;;;10.10;99.90;;;;;;4938621;29;20098;-73
2023/04/01 13:26:02;;;;;;;1.83;1.17;;;10.10;99.90;;;;;;4951118;29;20071;-73
2023/04/01 13:28:35;;;;;;;2.35;0.90;;;10.30;99.90;;;;;;4935898;29;20036;-72
2023/04/01 13:31:03;;;;;;;1.70;0.57;;;10.30;99.90;;;;;;4920000;29;20089;-72
2023/04/01 13:33:52;;;;;;;2.05;0.68;;;10.20;99.90;;;;;;4954878;29;20047;-72
2023/04/01 13:36:58;;;;;;;1.95;0.73;;;10.20;99.90;;;;;;4953984;29;20035;-71
2023/04/01 13:39:36;;;;;;;1.13;0.30;;;10.30;99.90;;;;;;4935750;29;20067;-69
2023/04/01 13:42:24;;;;;;;0.90;0.57;;;10.20;99.90;;;;;;4940143;29;20027;-72
2023/04/01 13:45:00;;;;;;;3.50;1.10;;;10.20;99.90;;;;;;4953719;29;20123;-72
2023/04/01 13:47:55;;;;;;;1.80;0.50;;;10.00;99.90;;;;;;4954082;29;20034;-70
2023/04/01 13:50:46;;;;;;;1.25;0.43;;;10.00;99.90;;;;;;4952048;29;20035;-70
2023/04/01 13:53:44;;;;;;;1.55;0.73;;;10.10;99.90;;;;;;4938316;29;20043;-71
2023/04/01 13:56:20;;;;;;;1.23;0.47;;;10.10;99.90;;;;;;4940544;29;20377;-69
2023/04/01 13:59:03;;;;;;;1.45;0.45;;;10.20;99.90;;;;;;4966607;28;20033;-70
2023/04/01 14:01:33;;;;;;;1.27;0.60;;;10.10;99.90;;;;;;5023916;28;20036;-70
2023/04/01 14:04:32;;;;;;;0.88;0.50;;;10.20;99.90;;;;;;5015019;28;20037;-71
2023/04/01 14:07:11;;;;;;;1.45;0.60;;;10.20;99.90;;;;;;5012238;28;20025;-70
2023/04/01 14:10:18;;;;;;;2.38;0.43;;;10.20;99.90;;;;;;5034212;28;20493;-70
2023/04/01 14:12:56;;;;;;;1.05;0.47;;;10.10;99.90;;;;;;4994075;28;20038;-69
2023/04/01 14:15:28;;;;;;;2.35;0.60;;;10.00;99.90;;;;;;4997616;28;20046;-70
2023/04/01 14:18:13;;;;;;;1.50;0.70;;;10.10;99.90;;;;;;5033288;28;20022;-69
2023/04/01 14:20:57;;;;;;;2.80;0.70;;;10.10;99.90;;;;;;5017166;28;20112;-69
2023/04/01 14:24:09;;;;;;;1.00;0.50;;;10.10;99.90;;;;;;5036813;28;20105;-69
2023/04/01 14:26:53;;;;;;;1.08;0.50;;;10.20;99.90;;;;;;4966745;28;20073;-70
2023/04/01 14:29:21;;;;;;;1.20;0.50;;;10.20;99.90;;;;;;4999748;28;20040;-75